Time;durP1;ratioP1;P1;durP2;ratioP2;P2;SDS_P1;SDS_P2;PMS_P1;PMS_P2;Temp;Humidity;BMP_temperature;BMP_pressure;BME280_temperature;BME280_humidity;BME280_pressure;Samples;Min_cycle;Max_cycle;Signal;HPM_P1;HPM_P2
2023/09/30 00:01:01;;;;;;;16.40;4.90;;;11.40;99.90;;;;;;6304698;22;20019;-48
2023/09/30 00:03:27;;;;;;;17.88;5.18;;;11.40;99.90;;;;;;6306873;22;20110;-44
2023/09/30 00:05:53;;;;;;;17.80;5.47;;;11.30;99.90;;;;;;6273250;22;20018;-46
2023/09/30 00:08:19;;;;;;;16.48;5.32;;;11.40;99.90;;;;;;6303565;22;20018;-45
2023/09/30 00:10:46;;;;;;;16.85;5.53;;;11.40;99.90;;;;;;6304162;22;20011;-45
2023/09/30 00:13:12;;;;;;;14.57;5.55;;;11.40;99.90;;;;;;6300209;22;20019;-47
2023/09/30 00:15:38;;;;;;;15.52;5.20;;;11.40;99.90;;;;;;6302976;22;20015;-45
2023/09/30 00:18:05;;;;;;;18.33;4.90;;;11.40;99.90;;;;;;6304651;22;20011;-46
2023/09/30 00:20:31;;;;;;;17.75;5.22;;;11.40;99.90;;;;;;6304626;22;20094;-47
2023/09/30 00:22:56;;;;;;;16.75;5.38;;;11.40;99.90;;;;;;6304593;22;20094;-48
2023/09/30 00:25:22;;;;;;;17.63;5.32;;;11.30;99.90;;;;;;6305256;22;20100;-45
2023/09/30 00:27:48;;;;;;;17.52;5.70;;;11.30;99.90;;;;;;6301886;22;20011;-45
2023/09/30 00:30:14;;;;;;;14.18;4.78;;;11.30;99.90;;;;;;6276989;22;20007;-45
2023/09/30 00:32:39;;;;;;;21.23;4.88;;;11.30;99.90;;;;;;6276685;22;20030;-46
2023/09/30 00:35:11;;;;;;;16.52;5.63;;;11.30;99.90;;;;;;6305200;22;20023;-45
2023/09/30 00:37:41;;;;;;;17.70;5.57;;;11.30;99.90;;;;;;6276203;22;20466;-45
2023/09/30 00:40:11;;;;;;;14.13;4.63;;;11.30;99.90;;;;;;6305243;22;20015;-46
2023/09/30 00:42:40;;;;;;;15.50;5.13;;;11.30;99.90;;;;;;6303458;22;20390;-46
2023/09/30 00:45:09;;;;;;;15.05;5.45;;;11.40;99.90;;;;;;6304035;22;20023;-46
2023/09/30 00:47:36;;;;;;;14.13;4.75;;;11.40;99.90;;;;;;6303818;22;20439;-45
2023/09/30 00:50:07;;;;;;;18.55;5.55;;;11.40;99.90;;;;;;6305175;22;20343;-46
2023/09/30 00:52:34;;;;;;;15.77;5.18;;;11.40;99.90;;;;;;6303771;22;20175;-47
2023/09/30 00:55:01;;;;;;;19.38;5.38;;;11.40;99.90;;;;;;6304021;22;20145;-46
2023/09/30 00:57:27;;;;;;;16.88;5.07;;;11.40;99.90;;;;;;6303027;22;20081;-47
2023/09/30 00:59:54;;;;;;;15.43;5.47;;;11.40;99.90;;;;;;6303810;22;20086;-46
2023/09/30 01:02:20;;;;;;;18.92;6.07;;;11.50;99.90;;;;;;6303256;22;20481;-46
2023/09/30 01:04:46;;;;;;;20.52;6.00;;;11.50;99.90;;;;;;6274070;22;20015;-45
2023/09/30 01:07:12;;;;;;;22.15;5.82;;;11.50;99.90;;;;;;6277193;22;20007;-48
2023/09/30 01:09:38;;;;;;;16.58;6.05;;;11.50;99.90;;;;;;6303725;22;20016;-46
2023/09/30 01:12:04;;;;;;;18.27;5.60;;;11.50;99.90;;;;;;6273946;22;20019;-47
2023/09/30 01:14:32;;;;;;;16.17;5.45;;;11.50;99.90;;;;;;6275754;22;20026;-45
2023/09/30 01:16:58;;;;;;;19.38;6.32;;;11.50;99.90;;;;;;6304706;22;20149;-46
2023/09/30 01:19:25;;;;;;;16.02;5.28;;;11.50;99.90;;;;;;6304173;22;20011;-49
2023/09/30 01:22:00;;;;;;;22.33;6.15;;;11.50;99.90;;;;;;6304724;22;20015;-46
2023/09/30 01:24:26;;;;;;;16.95;6.63;;;11.50;99.90;;;;;;6304332;22;20007;-45
2023/09/30 01:26:53;;;;;;;16.35;5.68;;;11.50;99.90;;;;;;6304342;22;20051;-45
2023/09/30 01:29:18;;;;;;;20.30;5.80;;;11.50;99.90;;;;;;6302456;22;20019;-46
2023/09/30 01:31:47;;;;;;;16.23;5.80;;;11.50;99.90;;;;;;6302846;22;20466;-46
2023/09/30 01:34:14;;;;;;;15.73;6.05;;;11.50;99.90;;;;;;6303603;22;20015;-45
2023/09/30 01:36:40;;;;;;;15.30;6.07;;;11.40;99.90;;;;;;6301660;22;20373;-45
2023/09/30 01:39:07;;;;;;;15.77;6.10;;;11.50;99.90;;;;;;6301532;22;20312;-44
2023/09/30 01:41:32;;;;;;;15.50;5.97;;;11.50;99.90;;;;;;6303891;22;20019;-46
2023/09/30 01:43:58;;;;;;;14.38;6.35;;;11.50;99.90;;;;;;6303633;22;20021;-46
2023/09/30 01:46:24;;;;;;;19.23;5.95;;;11.50;99.90;;;;;;6302449;22;20371;-46
2023/09/30 01:48:49;;;;;;;16.65;5.93;;;11.50;99.90;;;;;;6304215;22;20022;-46
2023/09/30 01:51:15;;;;;;;16.48;6.05;;;11.50;99.90;;;;;;6303388;22;20015;-46
2023/09/30 01:53:40;;;;;;;15.13;5.93;;;11.50;99.90;;;;;;6303130;22;20019;-46
2023/09/30 01:56:06;;;;;;;15.98;5.95;;;11.50;99.90;;;;;;6303588;22;20019;-46
2023/09/30 01:58:32;;;;;;;15.77;6.63;;;11.50;99.90;;;;;;6276446;22;20034;-45
2023/09/30 02:01:04;;;;;;;18.92;5.97;;;11.50;99.90;;;;;;6303962;22;20046;-46
2023/09/30 02:03:29;;;;;;;18.60;6.68;;;11.50;99.90;;;;;;6302637;22;20316;-46
2023/09/30 02:05:56;;;;;;;18.15;5.90;;;11.50;99.90;;;;;;6303776;22;20086;-44
2023/09/30 02:08:22;;;;;;;13.75;6.25;;;11.50;99.90;;;;;;6305017;22;20011;-45
2023/09/30 02:10:48;;;;;;;17.00;6.05;;;11.50;99.90;;;;;;6274823;22;20031;-45
2023/09/30 02:13:13;;;;;;;15.05;5.55;;;11.50;99.90;;;;;;6301573;22;20012;-48
2023/09/30 02:15:42;;;;;;;15.93;6.10;;;11.50;99.90;;;;;;6303439;22;20446;-48
2023/09/30 02:18:09;;;;;;;15.77;5.93;;;11.40;99.90;;;;;;6305995;22;20011;-45
2023/09/30 02:20:39;;;;;;;16.40;5.65;;;11.50;99.90;;;;;;6305333;22;20023;-45
2023/09/30 02:23:05;;;;;;;15.70;6.25;;;11.50;99.90;;;;;;6279203;22;20015;-45
2023/09/30 02:25:32;;;;;;;12.18;5.68;;;11.50;99.90;;;;;;6305599;22;20015;-46
2023/09/30 02:27:57;;;;;;;15.30;6.00;;;11.50;99.90;;;;;;6306242;22;20057;-46
2023/09/30 02:30:23;;;;;;;16.55;6.35;;;11.50;99.90;;;;;;6304071;22;20023;-46
2023/09/30 02:32:49;;;;;;;14.80;6.32;;;11.50;99.90;;;;;;6305208;22;20068;-45
2023/09/30 02:35:15;;;;;;;15.70;6.68;;;11.50;99.90;;;;;;6305389;22;20015;-44
2023/09/30 02:37:41;;;;;;;15.50;6.40;;;11.50;99.90;;;;;;6305910;22;20465;-45
2023/09/30 02:40:09;;;;;;;15.82;5.70;;;11.40;99.90;;;;;;6305919;22;20015;-46
2023/09/30 02:42:41;;;;;;;15.75;5.70;;;11.40;99.90;;;;;;6304543;22;20296;-46
2023/09/30 02:45:08;;;;;;;17.33;6.00;;;11.40;99.90;;;;;;6305398;22;20354;-46
2023/09/30 02:47:34;;;;;;;17.63;6.25;;;11.40;99.90;;;;;;6305135;22;20011;-44
2023/09/30 02:50:01;;;;;;;14.48;5.45;;;11.40;99.90;;;;;;6304547;22;20022;-45
2023/09/30 02:52:28;;;;;;;17.95;5.90;;;11.40;99.90;;;;;;6305235;22;20359;-44
2023/09/30 02:54:54;;;;;;;14.32;5.95;;;11.40;99.90;;;;;;6305579;22;20386;-47
2023/09/30 02:57:20;;;;;;;16.50;5.90;;;11.40;99.90;;;;;;6304828;22;20043;-45
2023/09/30 02:59:47;;;;;;;16.95;6.50;;;11.40;99.90;;;;;;6278490;22;20016;-45
2023/09/30 03:02:13;;;;;;;14.45;5.93;;;11.40;99.90;;;;;;6277669;22;20374;-48
2023/09/30 03:04:38;;;;;;;15.55;6.30;;;11.50;99.90;;;;;;6304024;22;20019;-46
2023/09/30 03:07:05;;;;;;;15.48;6.38;;;11.40;99.90;;;;;;6303885;22;20016;-48
2023/09/30 03:09:31;;;;;;;12.73;5.93;;;11.40;99.90;;;;;;6303844;22;20015;-45
2023/09/30 03:11:59;;;;;;;14.55;6.00;;;11.40;99.90;;;;;;6307819;22;20029;-44
2023/09/30 03:14:25;;;;;;;22.25;6.05;;;11.40;99.90;;;;;;6276971;22;20030;-48
2023/09/30 03:16:50;;;;;;;15.00;6.22;;;11.30;99.90;;;;;;6304549;22;20012;-45
2023/09/30 03:19:16;;;;;;;14.23;6.43;;;11.30;99.90;;;;;;6305134;22;20014;-47
2023/09/30 03:21:42;;;;;;;17.65;7.47;;;11.30;99.90;;;;;;6304455;22;20008;-46
2023/09/30 03:24:08;;;;;;;15.98;6.03;;;11.30;99.90;;;;;;6305140;22;20019;-46
2023/09/30 03:26:35;;;;;;;14.00;6.03;;;11.30;99.90;;;;;;6304095;22;20508;-49
2023/09/30 03:29:01;;;;;;;14.30;6.10;;;11.20;99.90;;;;;;6305394;22;20106;-47
2023/09/30 03:31:27;;;;;;;13.82;6.10;;;11.20;99.90;;;;;;6304480;22;20121;-49
2023/09/30 03:33:55;;;;;;;14.20;5.82;;;11.20;99.90;;;;;;6304366;22;20431;-46
2023/09/30 03:36:24;;;;;;;16.02;7.00;;;11.20;99.90;;;;;;6304276;22;20144;-46
2023/09/30 03:38:50;;;;;;;9.88;5.35;;;11.20;99.90;;;;;;6305584;22;20015;-46
2023/09/30 03:41:16;;;;;;;17.35;6.10;;;11.20;99.90;;;;;;6304024;22;20490;-44
2023/09/30 03:43:41;;;;;;;14.55;6.28;;;11.10;99.90;;;;;;6305142;22;20054;-45
2023/09/30 03:46:11;;;;;;;16.52;6.93;;;11.10;99.90;;;;;;6304144;22;20015;-48
2023/09/30 03:48:39;;;;;;;15.57;6.65;;;11.20;99.90;;;;;;6304779;22;20019;-45
2023/09/30 03:51:13;;;;;;;13.17;6.07;;;11.20;99.90;;;;;;6304801;22;20114;-45
2023/09/30 03:53:43;;;;;;;13.88;6.00;;;11.10;99.90;;;;;;6304614;22;20693;-45
2023/09/30 03:56:11;;;;;;;17.17;7.00;;;11.20;99.90;;;;;;6305010;22;20091;-45
2023/09/30 03:58:41;;;;;;;13.77;6.47;;;11.10;99.90;;;;;;6305517;22;20027;-45
2023/09/30 04:01:07;;;;;;;15.32;6.85;;;11.00;99.90;;;;;;6304547;22;20023;-45
2023/09/30 04:03:34;;;;;;;13.60;6.00;;;11.00;99.90;;;;;;6304281;22;20022;-45
2023/09/30 04:06:02;;;;;;;14.00;6.03;;;11.00;99.90;;;;;;6304015;22;20385;-45
2023/09/30 04:08:28;;;;;;;15.13;6.70;;;11.10;99.90;;;;;;6304605;22;20015;-45
2023/09/30 04:10:54;;;;;;;15.90;6.55;;;11.10;99.90;;;;;;6304901;22;20011;-45
2023/09/30 04:13:21;;;;;;;16.60;6.53;;;11.00;99.90;;;;;;6278381;22;20023;-46
2023/09/30 04:15:47;;;;;;;13.13;6.55;;;11.10;99.90;;;;;;6305459;22;20063;-46
2023/09/30 04:18:13;;;;;;;15.55;7.07;;;11.00;99.90;;;;;;6304744;22;20098;-46
2023/09/30 04:20:39;;;;;;;17.42;7.60;;;11.00;99.90;;;;;;6304259;22;20008;-46
2023/09/30 04:23:06;;;;;;;18.35;7.50;;;11.10;99.90;;;;;;6303979;22;20011;-46
2023/09/30 04:25:32;;;;;;;15.40;7.47;;;11.00;99.90;;;;;;6305957;22;20072;-43
2023/09/30 04:27:58;;;;;;;15.38;7.30;;;11.10;99.90;;;;;;6276406;22;20334;-44
2023/09/30 04:30:23;;;;;;;15.23;6.78;;;11.10;99.90;;;;;;6305948;22;20015;-48
2023/09/30 04:32:49;;;;;;;20.00;8.10;;;11.10;99.90;;;;;;6304443;22;20007;-47
2023/09/30 04:35:15;;;;;;;18.67;8.15;;;11.10;99.90;;;;;;6305606;22;20019;-46
2023/09/30 04:37:40;;;;;;;15.05;8.63;;;11.20;99.90;;;;;;6303772;22;20107;-45
2023/09/30 04:40:21;;;;;;;15.25;8.50;;;11.20;99.90;;;;;;6304834;22;20018;-46
2023/09/30 04:42:47;;;;;;;17.88;8.52;;;11.20;99.90;;;;;;6276410;22;20092;-45
2023/09/30 04:45:19;;;;;;;20.02;8.65;;;11.20;99.90;;;;;;6277489;22;20015;-45
2023/09/30 04:47:45;;;;;;;17.67;9.05;;;11.30;99.90;;;;;;6305225;22;20086;-45
2023/09/30 04:50:11;;;;;;;17.65;8.95;;;11.40;99.90;;;;;;6305308;22;20372;-45
2023/09/30 04:52:40;;;;;;;18.90;9.23;;;11.30;99.90;;;;;;6303145;22;20082;-45
2023/09/30 04:55:06;;;;;;;16.43;8.97;;;11.30;99.90;;;;;;6304599;22;20022;-47
2023/09/30 04:57:32;;;;;;;18.40;8.82;;;11.30;99.90;;;;;;6304313;22;20244;-48
2023/09/30 04:59:58;;;;;;;16.00;8.52;;;11.30;99.90;;;;;;6304216;22;20470;-45
2023/09/30 05:02:25;;;;;;;16.70;8.52;;;11.30;99.90;;;;;;6304191;22;20028;-48
2023/09/30 05:04:52;;;;;;;20.33;8.97;;;11.30;99.90;;;;;;6305882;22;20430;-45
2023/09/30 05:07:17;;;;;;;18.80;9.25;;;11.30;99.90;;;;;;6305130;22;20478;-44
2023/09/30 05:09:43;;;;;;;21.52;9.15;;;11.20;99.90;;;;;;6305784;22;20015;-44
2023/09/30 05:12:09;;;;;;;16.17;8.80;;;11.30;99.90;;;;;;6305645;22;20029;-46
2023/09/30 05:14:36;;;;;;;17.58;9.38;;;11.20;99.90;;;;;;6306074;22;20015;-45
2023/09/30 05:17:04;;;;;;;17.13;8.73;;;11.20;99.90;;;;;;6305354;22;20343;-45
2023/09/30 05:19:32;;;;;;;15.23;9.13;;;11.20;99.90;;;;;;6305542;22;20015;-47
2023/09/30 05:21:57;;;;;;;17.23;9.43;;;11.10;99.90;;;;;;6305128;22;20011;-45
2023/09/30 05:24:23;;;;;;;18.33;9.30;;;11.10;99.90;;;;;;6304644;22;20230;-45
2023/09/30 05:26:49;;;;;;;17.27;9.15;;;11.10;99.90;;;;;;6304742;22;20073;-45
2023/09/30 05:29:16;;;;;;;16.58;8.70;;;11.00;99.90;;;;;;6304472;22;20014;-46
2023/09/30 05:31:42;;;;;;;18.67;9.15;;;11.00;99.90;;;;;;6277049;22;20335;-45
2023/09/30 05:34:08;;;;;;;15.02;8.80;;;10.90;99.90;;;;;;6304251;22;20122;-47
2023/09/30 05:36:34;;;;;;;13.30;8.77;;;;;;;;;;6304918;22;20100;-46
2023/09/30 05:39:00;;;;;;;15.95;8.60;;;10.90;99.90;;;;;;6305273;22;20034;-47
2023/09/30 05:41:26;;;;;;;20.02;9.73;;;10.90;99.90;;;;;;6304977;22;20015;-45
2023/09/30 05:43:53;;;;;;;19.60;9.68;;;11.00;99.90;;;;;;6305007;22;20328;-45
2023/09/30 05:46:19;;;;;;;19.70;9.70;;;10.90;99.90;;;;;;6304829;22;20021;-46
2023/09/30 05:48:44;;;;;;;19.33;9.82;;;10.90;99.90;;;;;;6305052;22;20090;-46
2023/09/30 05:51:14;;;;;;;19.67;9.88;;;11.00;99.90;;;;;;6276719;22;20054;-44
2023/09/30 05:53:41;;;;;;;16.80;9.68;;;10.90;99.90;;;;;;6304836;22;20034;-45
2023/09/30 05:56:07;;;;;;;18.80;9.88;;;11.00;99.90;;;;;;6305090;22;20073;-44
2023/09/30 05:58:33;;;;;;;18.10;9.77;;;11.00;99.90;;;;;;6305384;22;20434;-44
2023/09/30 06:01:00;;;;;;;20.58;10.63;;;11.20;99.90;;;;;;6304948;22;20105;-45
2023/09/30 06:03:29;;;;;;;18.45;10.95;;;11.10;99.90;;;;;;6278637;22;20340;-48
2023/09/30 06:05:55;;;;;;;18.20;10.57;;;11.20;99.90;;;;;;6304435;22;20047;-48
2023/09/30 06:08:21;;;;;;;18.77;10.57;;;11.20;99.90;;;;;;6305114;22;20501;-46
2023/09/30 06:10:47;;;;;;;17.15;10.82;;;11.40;99.90;;;;;;6305366;22;20023;-46
2023/09/30 06:13:13;;;;;;;17.98;11.02;;;11.30;99.90;;;;;;6305329;22;20011;-49
2023/09/30 06:15:40;;;;;;;18.58;10.73;;;11.30;99.90;;;;;;6277313;22;20637;-46
2023/09/30 06:18:06;;;;;;;20.77;11.15;;;;;;;;;;6306129;22;20332;-46
2023/09/30 06:20:33;;;;;;;20.95;11.63;;;11.40;99.90;;;;;;6277696;22;20435;-46
2023/09/30 06:23:00;;;;;;;19.92;10.55;;;11.50;99.90;;;;;;6304418;22;20513;-44
2023/09/30 06:25:27;;;;;;;17.38;10.80;;;11.60;99.90;;;;;;6304756;22;20012;-45
2023/09/30 06:27:54;;;;;;;18.45;10.43;;;11.60;99.90;;;;;;6304874;22;20089;-48
2023/09/30 06:30:20;;;;;;;20.05;10.80;;;11.60;99.90;;;;;;6304644;22;20439;-46
2023/09/30 06:32:47;;;;;;;20.27;11.48;;;;;;;;;;6304625;22;20078;-45
2023/09/30 06:35:13;;;;;;;18.52;11.07;;;12.10;99.90;;;;;;6304949;22;20042;-44
2023/09/30 06:37:42;;;;;;;17.15;10.38;;;13.20;99.90;;;;;;6305300;22;20011;-48
2023/09/30 06:40:12;;;;;;;16.77;10.18;;;13.20;99.90;;;;;;6305838;22;20100;-45
2023/09/30 06:42:39;;;;;;;17.33;10.40;;;14.00;99.90;;;;;;6304817;22;20007;-46
2023/09/30 06:45:06;;;;;;;15.40;10.27;;;14.30;99.90;;;;;;6304530;22;20443;-46
2023/09/30 06:47:41;;;;;;;14.88;10.00;;;14.70;99.90;;;;;;6304195;22;20455;-48
2023/09/30 06:50:12;;;;;;;15.48;10.27;;;;;;;;;;6304610;22;20451;-48
2023/09/30 06:52:39;;;;;;;18.23;9.82;;;15.00;99.90;;;;;;6304019;22;20019;-45
2023/09/30 06:55:06;;;;;;;16.73;10.25;;;14.80;99.90;;;;;;6304712;22;20068;-45
2023/09/30 06:57:36;;;;;;;17.45;10.32;;;14.50;99.90;;;;;;6277238;22;20141;-47
2023/09/30 07:00:08;;;;;;;19.80;10.10;;;14.30;99.90;;;;;;6304544;22;20018;-45
2023/09/30 07:02:34;;;;;;;15.90;9.60;;;14.20;99.90;;;;;;6306273;22;20011;-44
2023/09/30 07:05:00;;;;;;;19.60;10.60;;;14.10;99.90;;;;;;6302711;22;20327;-46
2023/09/30 07:07:25;;;;;;;16.38;10.02;;;14.00;99.90;;;;;;6301427;22;20463;-44
2023/09/30 07:09:51;;;;;;;16.83;10.68;;;14.00;99.90;;;;;;6301944;22;20019;-46
2023/09/30 07:12:17;;;;;;;20.00;10.13;;;14.00;99.90;;;;;;6301082;22;20316;-44
2023/09/30 07:14:42;;;;;;;17.80;10.60;;;14.00;99.90;;;;;;6306371;22;20015;-44
2023/09/30 07:17:08;;;;;;;15.50;10.18;;;14.00;99.90;;;;;;6306549;22;20018;-46
2023/09/30 07:19:33;;;;;;;16.33;10.98;;;14.10;99.90;;;;;;6310194;22;20023;-46
2023/09/30 07:22:00;;;;;;;15.48;10.57;;;14.20;99.90;;;;;;6254245;22;20457;-45
2023/09/30 07:24:25;;;;;;;15.38;10.63;;;14.20;99.90;;;;;;6306617;22;20023;-48
2023/09/30 07:26:51;;;;;;;14.20;11.27;;;14.30;99.90;;;;;;6306664;22;20046;-47
2023/09/30 07:29:16;;;;;;;19.25;10.90;;;14.30;99.90;;;;;;6306724;22;20043;-47
2023/09/30 07:31:42;;;;;;;17.60;11.07;;;14.30;99.90;;;;;;6306064;22;20015;-47
2023/09/30 07:34:08;;;;;;;15.63;10.25;;;14.40;99.90;;;;;;6279144;22;20100;-49
2023/09/30 07:36:33;;;;;;;19.23;11.07;;;14.50;99.90;;;;;;6306562;22;20086;-45
2023/09/30 07:39:00;;;;;;;15.60;10.68;;;14.60;99.90;;;;;;6307138;22;20011;-45
2023/09/30 07:41:26;;;;;;;15.80;10.57;;;14.60;99.90;;;;;;6306116;22;20512;-47
2023/09/30 07:43:52;;;;;;;18.25;11.27;;;14.80;99.90;;;;;;6306996;22;20039;-45
2023/09/30 07:46:18;;;;;;;14.18;11.70;;;15.00;99.90;;;;;;6306843;22;20458;-46
2023/09/30 07:48:43;;;;;;;16.42;11.00;;;15.10;99.90;;;;;;6306864;22;20042;-46
2023/09/30 07:51:12;;;;;;;17.48;11.13;;;15.30;99.90;;;;;;6278871;22;20397;-49
2023/09/30 07:53:40;;;;;;;18.15;11.25;;;15.40;99.90;;;;;;6278687;22;20026;-48
2023/09/30 07:56:05;;;;;;;19.38;11.50;;;15.50;99.90;;;;;;6306565;22;20022;-45
2023/09/30 07:58:32;;;;;;;17.38;10.68;;;15.60;99.90;;;;;;6305998;22;20039;-45
2023/09/30 08:00:58;;;;;;;14.63;11.63;;;15.70;99.90;;;;;;6307514;22;20026;-48
2023/09/30 08:03:24;;;;;;;21.35;11.43;;;15.90;99.90;;;;;;6255582;22;20343;-46
2023/09/30 08:05:50;;;;;;;15.18;11.32;;;16.00;99.90;;;;;;6277887;22;20083;-44
2023/09/30 08:08:16;;;;;;;17.35;11.55;;;16.30;99.90;;;;;;6307172;22;20019;-45
2023/09/30 08:10:42;;;;;;;17.00;10.98;;;16.30;99.90;;;;;;6305694;22;20019;-46
2023/09/30 08:13:09;;;;;;;17.20;11.52;;;16.20;99.90;;;;;;6304883;22;20018;-48
2023/09/30 08:15:35;;;;;;;15.43;11.10;;;16.10;99.90;;;;;;6305952;22;20016;-47
2023/09/30 08:18:02;;;;;;;16.65;10.68;;;16.10;99.90;;;;;;6306777;22;20015;-47
2023/09/30 08:20:28;;;;;;;14.45;11.23;;;16.00;99.90;;;;;;6307973;22;20060;-47
2023/09/30 08:22:54;;;;;;;16.27;10.90;;;15.90;99.90;;;;;;6307173;22;20015;-47
2023/09/30 08:25:19;;;;;;;15.68;10.63;;;15.80;99.90;;;;;;6306642;22;20015;-46
2023/09/30 08:27:49;;;;;;;16.92;11.15;;;15.80;99.90;;;;;;6304165;22;20012;-45
2023/09/30 08:30:15;;;;;;;16.95;11.30;;;15.70;99.90;;;;;;6277151;22;20108;-47
2023/09/30 08:32:40;;;;;;;14.38;10.65;;;15.60;99.90;;;;;;6305222;22;20015;-47
2023/09/30 08:35:07;;;;;;;16.88;10.90;;;15.60;99.90;;;;;;6277886;22;20341;-45
2023/09/30 08:37:32;;;;;;;15.68;11.88;;;15.60;99.90;;;;;;6305054;22;20019;-46
2023/09/30 08:39:58;;;;;;;17.70;12.23;;;15.70;99.90;;;;;;6251669;22;20528;-46
2023/09/30 08:42:26;;;;;;;19.40;12.15;;;15.70;99.90;;;;;;6302277;22;20011;-46
2023/09/30 08:44:55;;;;;;;;;;;15.70;99.90;;;;;;6304841;22;20082;-44
2023/09/30 08:47:22;;;;;;;20.20;11.73;;;15.60;99.90;;;;;;6303495;22;19919;-46
2023/09/30 08:49:50;;;;;;;19.93;12.10;;;15.60;99.90;;;;;;6305171;22;20094;-46
2023/09/30 08:52:16;;;;;;;18.42;12.30;;;15.60;99.90;;;;;;6304262;22;20288;-45
2023/09/30 08:54:42;;;;;;;19.50;13.30;;;15.50;99.90;;;;;;6303634;22;20050;-45
2023/09/30 08:57:12;;;;;;;19.05;13.23;;;15.60;99.90;;;;;;6304337;22;20431;-45
2023/09/30 08:59:41;;;;;;;19.50;13.32;;;15.60;99.90;;;;;;6304048;22;20019;-46
2023/09/30 09:02:09;;;;;;;19.23;13.70;;;15.70;99.90;;;;;;6303635;22;20011;-44
2023/09/30 09:04:36;;;;;;;21.75;14.20;;;15.90;99.90;;;;;;6304950;22;20082;-46
2023/09/30 09:07:02;;;;;;;19.60;13.73;;;16.00;99.90;;;;;;6304040;22;20015;-43
2023/09/30 09:09:27;;;;;;;20.45;13.60;;;16.20;99.90;;;;;;6303666;22;20439;-44
2023/09/30 09:11:53;;;;;;;19.15;13.18;;;16.30;99.90;;;;;;6304904;22;20019;-43
2023/09/30 09:14:19;;;;;;;17.70;12.98;;;16.40;99.90;;;;;;6276964;22;20160;-47
2023/09/30 09:16:52;;;;;;;20.42;13.68;;;16.30;99.90;;;;;;6277521;22;20069;-44
2023/09/30 09:19:18;;;;;;;18.42;13.23;;;16.50;99.90;;;;;;6277429;22;20023;-45
2023/09/30 09:22:06;;;;;;;19.05;13.65;;;16.70;99.90;;;;;;6309147;22;20054;-46
2023/09/30 09:24:35;;;;;;;17.90;12.48;;;16.80;99.90;;;;;;6304904;22;20019;-47
2023/09/30 09:27:22;;;;;;;18.55;13.45;;;16.90;99.90;;;;;;6304013;22;20012;-46
2023/09/30 09:29:48;;;;;;;18.55;13.07;;;17.20;99.90;;;;;;6305433;22;20011;-46
2023/09/30 09:32:16;;;;;;;18.92;13.60;;;17.40;99.90;;;;;;6304144;22;20027;-46
2023/09/30 09:34:43;;;;;;;18.13;12.85;;;17.50;99.90;;;;;;6276783;22;20025;-46
2023/09/30 09:37:27;;;;;;;20.40;13.25;;;17.50;99.90;;;;;;6305286;22;20025;-45
2023/09/30 09:39:57;;;;;;;19.38;13.18;;;;;;;;;;6305246;22;20095;-48
2023/09/30 09:42:34;;;;;;;18.38;11.88;;;17.80;99.90;;;;;;6305402;22;20015;-45
2023/09/30 09:45:05;;;;;;;16.50;12.23;;;17.90;99.90;;;;;;6305304;22;20023;-48
2023/09/30 09:47:32;;;;;;;15.07;10.63;;;17.90;99.90;;;;;;6251242;22;20068;-49
2023/09/30 09:49:59;;;;;;;16.83;9.85;;;18.00;99.90;;;;;;6304665;22;20008;-49
2023/09/30 09:52:26;;;;;;;14.65;10.23;;;18.00;99.90;;;;;;6276310;22;20419;-44
2023/09/30 09:54:52;;;;;;;12.57;9.45;;;18.20;99.90;;;;;;6303881;22;20054;-46
2023/09/30 09:57:18;;;;;;;12.18;8.93;;;18.30;99.90;;;;;;6277108;22;20023;-45
2023/09/30 09:59:49;;;;;;;17.13;9.23;;;18.30;99.90;;;;;;6276383;22;20050;-44
2023/09/30 10:02:16;;;;;;;14.85;9.20;;;18.40;99.90;;;;;;6304326;22;20091;-45
2023/09/30 10:04:46;;;;;;;15.05;8.73;;;18.40;99.90;;;;;;6304839;22;20343;-46
2023/09/30 10:07:25;;;;;;;14.05;8.48;;;18.50;99.90;;;;;;6303064;22;20015;-45
2023/09/30 10:09:52;;;;;;;13.40;8.00;;;18.60;99.90;;;;;;6304093;22;20019;-45
2023/09/30 10:12:21;;;;;;;12.53;7.60;;;18.70;99.90;;;;;;6304162;22;20447;-46
2023/09/30 10:14:47;;;;;;;13.82;7.13;;;18.80;99.90;;;;;;6304606;22;20245;-46
2023/09/30 10:17:13;;;;;;;12.05;7.03;;;18.80;99.90;;;;;;6304829;22;20011;-44
2023/09/30 10:20:07;;;;;;;13.55;7.82;;;18.80;99.90;;;;;;6305101;22;20018;-48
2023/09/30 10:22:33;;;;;;;10.43;6.32;;;18.80;99.90;;;;;;6305252;22;20373;-46
2023/09/30 10:25:00;;;;;;;12.40;6.40;;;18.90;99.90;;;;;;6304134;22;20103;-45
2023/09/30 10:27:31;;;;;;;12.15;6.82;;;19.00;99.90;;;;;;6276781;22;20095;-45
2023/09/30 10:30:10;;;;;;;9.65;6.32;;;19.00;99.90;;;;;;6304820;22;20042;-46
2023/09/30 10:32:50;;;;;;;10.60;5.57;;;19.10;99.90;;;;;;6304614;22;20030;-45
2023/09/30 10:35:31;;;;;;;10.48;5.90;;;19.10;99.90;;;;;;6304274;22;20022;-44
2023/09/30 10:38:22;;;;;;;11.50;5.30;;;19.20;99.90;;;;;;6306117;22;20023;-45
2023/09/30 10:40:50;;;;;;;11.60;6.15;;;19.30;99.90;;;;;;6304962;22;20094;-45
2023/09/30 10:43:36;;;;;;;12.75;6.25;;;19.30;99.90;;;;;;6305159;22;20023;-46
2023/09/30 10:46:02;;;;;;;10.55;6.10;;;19.40;99.90;;;;;;6305150;22;20011;-45
2023/09/30 10:48:28;;;;;;;10.30;5.55;;;19.50;99.90;;;;;;6304582;22;20007;-45
2023/09/30 10:51:00;;;;;;;9.93;5.40;;;19.50;99.90;;;;;;6305498;22;20064;-48
2023/09/30 10:53:27;;;;;;;11.80;4.38;;;19.60;99.90;;;;;;6305498;22;20015;-44
2023/09/30 10:55:59;;;;;;;9.43;4.70;;;;;;;;;;6304223;22;20068;-47
2023/09/30 10:58:53;;;;;;;9.52;4.68;;;19.70;99.90;;;;;;6302563;22;20015;-45
2023/09/30 11:01:20;;;;;;;9.50;5.00;;;19.90;99.90;;;;;;6276821;22;20015;-47
2023/09/30 11:03:47;;;;;;;9.90;4.38;;;20.20;99.90;;;;;;6305397;22;20118;-45
2023/09/30 11:06:20;;;;;;;8.93;3.35;;;20.20;99.90;;;;;;6251032;22;20011;-46
2023/09/30 11:09:00;;;;;;;9.85;3.53;;;20.20;99.90;;;;;;6305682;22;20336;-45
2023/09/30 11:11:50;;;;;;;8.90;2.95;;;20.20;99.90;;;;;;6304515;22;20018;-46
2023/09/30 11:14:20;;;;;;;5.55;2.53;;;20.20;99.90;;;;;;6305959;22;20084;-46
2023/09/30 11:16:46;;;;;;;8.52;2.75;;;20.10;99.90;;;;;;6306556;22;20011;-46
2023/09/30 11:19:12;;;;;;;5.13;2.53;;;20.10;99.90;;;;;;6303184;22;20043;-45
2023/09/30 11:21:39;;;;;;;7.72;2.85;;;19.90;99.90;;;;;;6306243;22;20368;-46
2023/09/30 11:24:06;;;;;;;7.38;2.15;;;19.90;99.90;;;;;;6305874;22;20013;-46
2023/09/30 11:26:33;;;;;;;10.40;3.00;;;19.90;99.90;;;;;;6305792;22;20016;-46
2023/09/30 11:29:16;;;;;;;8.55;2.53;;;20.00;99.90;;;;;;6305636;22;20100;-46
2023/09/30 11:31:48;;;;;;;4.03;2.08;;;20.20;99.90;;;;;;6304823;22;20019;-47
2023/09/30 11:34:15;;;;;;;7.80;2.70;;;20.40;99.90;;;;;;6278163;22;20336;-47
2023/09/30 11:36:48;;;;;;;7.70;2.33;;;20.60;99.90;;;;;;6278487;22;20097;-48
2023/09/30 11:39:28;;;;;;;7.97;2.45;;;20.80;99.90;;;;;;6306961;22;20022;-46
2023/09/30 11:41:56;;;;;;;7.32;2.45;;;20.90;99.90;;;;;;6307647;22;20018;-48
2023/09/30 11:44:22;;;;;;;8.80;2.70;;;21.00;99.90;;;;;;6307389;22;20351;-48
2023/09/30 11:46:55;;;;;;;7.25;2.72;;;;;;;;;;6306119;22;20050;-49
2023/09/30 11:49:38;;;;;;;8.50;3.05;;;21.40;99.90;;;;;;6306803;22;20034;-50
2023/09/30 11:52:14;;;;;;;4.43;1.98;;;21.40;99.90;;;;;;6306421;22;20019;-48
2023/09/30 11:54:45;;;;;;;5.20;2.13;;;21.50;99.90;;;;;;6306814;22;20007;-47
2023/09/30 11:57:18;;;;;;;6.13;2.10;;;21.40;99.90;;;;;;6306500;22;20462;-47
2023/09/30 11:59:47;;;;;;;6.45;2.35;;;21.30;99.90;;;;;;6307290;22;20041;-47
2023/09/30 12:02:14;;;;;;;6.60;2.20;;;20.90;99.90;;;;;;6306680;22;20082;-47
2023/09/30 12:04:42;;;;;;;7.68;2.60;;;20.90;99.90;;;;;;6279690;22;20060;-48
2023/09/30 12:07:08;;;;;;;5.80;1.98;;;20.80;99.90;;;;;;6306912;22;20007;-46
2023/09/30 12:09:36;;;;;;;5.47;2.10;;;20.50;99.90;;;;;;6306432;22;20022;-47
2023/09/30 12:12:03;;;;;;;6.85;2.10;;;20.20;99.90;;;;;;6306349;22;20022;-45
2023/09/30 12:14:32;;;;;;;6.38;2.45;;;20.20;99.90;;;;;;6306499;22;20381;-47
2023/09/30 12:16:58;;;;;;;8.07;2.20;;;;;;;;;;6306642;22;20053;-49
2023/09/30 12:19:24;;;;;;;5.68;2.15;;;20.00;99.90;;;;;;6278903;22;20026;-50
2023/09/30 12:21:50;;;;;;;6.20;2.53;;;20.10;99.90;;;;;;6306704;22;20086;-46
2023/09/30 12:24:17;;;;;;;7.15;2.50;;;20.10;99.90;;;;;;6306502;22;20042;-47
2023/09/30 12:26:48;;;;;;;5.90;2.00;;;19.90;99.90;;;;;;6306805;22;20019;-47
2023/09/30 12:29:21;;;;;;;7.68;2.00;;;20.00;99.90;;;;;;6306251;22;20019;-49
2023/09/30 12:31:52;;;;;;;6.05;1.90;;;20.20;99.90;;;;;;6306848;22;20091;-47
2023/09/30 12:34:18;;;;;;;7.18;1.75;;;20.30;99.90;;;;;;6306526;22;20058;-50
2023/09/30 12:36:44;;;;;;;5.43;1.80;;;20.30;99.90;;;;;;6306434;22;20011;-48
2023/09/30 12:39:11;;;;;;;5.75;1.98;;;20.30;99.90;;;;;;6306563;22;20015;-47
2023/09/30 12:41:41;;;;;;;8.13;1.95;;;20.60;99.90;;;;;;6306098;22;20430;-46